Portada
METAR-TAF:

METAR-TAF

Aeroports :

Cap Skirring, Senegal

latitud: 12-24N, longitud: 016-45W, altitud: 16 m

Observació

L'informe es va fer fa 1 hora i 32 minuts, a les 17:00 UTC
Vent 6 kt del Nord-Oest
Temperatura 28°C
Humitat 84%
Pressió 1013 hPa
Visibilitat 10 km o més
Cel ennuvolat a una alçada de 1500 ft
Escasses núvols a una alçada de 3000 ft, Cumulonimbus.
tempesta,

METAR: GOGS 121700Z 32006KT 9999 TS BKN015 FEW030CB 28/25 Q1013

Hora: 18:32 (18:32 UTC)

Pronòstic

L'informe es va fer fa 1 hora i 32 minuts, a les 17:00 UTC
Pronòstic vàlid del 12 a les 18 UTC al 13 a les 18 UTC
Vent 8 kt del Oest/Nord-Oest
Visibilitat 10 km o més
Cel ennuvolat a una alçada de 1000 ft
Escasses núvols a una alçada de 2000 ft, Cumulonimbus.
Temporalment
l' 12 a les 20 UTC al 12 a les 24 UTC
Visibilitat: 4000 m
tempesta, pluja,

TAF: GOGS 121700Z 1218/1318 30008KT 9999 BKN010 FEW020CB TEMPO 1220/1224 4000 TSRA

Observacions i pronòstics meteorològics de més de 4000 aeroports (METAR i TAF).

Les estacions disponibles són els punts grocs i vermells al mapa.

Posi el ratolí al punt desitjat per veure el nom de l'estació.

Feu clic per veure les observacions i els pronòstics meteorològics.

Per canviar el mapa: feu clic els botons verds amb una creu de color negre per apropar; al botó verd amb un guió per allunyar la imatge; o en les fletxes verdes per a mapes adjacents.


METAR-TAF: